Time;durP1;ratioP1;P1;durP2;ratioP2;P2;SDS_P1;SDS_P2;PMS_P1;PMS_P2;Temp;Humidity;BMP_temperature;BMP_pressure;BME280_temperature;BME280_humidity;BME280_pressure;Samples;Min_cycle;Max_cycle;Signal;HPM_P1;HPM_P2
2021/09/12 00:00:56;;;;;;;8.40;5.93;;;;;;;16.88;76.46;99847.59;5048008;28;20033;-69
2021/09/12 00:03:21;;;;;;;8.13;6.22;;;;;;;16.90;76.70;99845.63;5047327;28;20033;-71
2021/09/12 00:05:47;;;;;;;5.90;5.20;;;;;;;16.92;76.13;99851.69;5049347;28;20111;-70
2021/09/12 00:08:12;;;;;;;6.78;5.47;;;;;;;16.97;76.11;99850.53;5046135;28;20441;-68
2021/09/12 00:10:38;;;;;;;6.80;4.72;;;;;;;17.00;75.87;99855.59;5031050;28;20119;-71
2021/09/12 00:13:04;;;;;;;5.82;4.78;;;;;;;17.00;76.03;99851.13;5029289;28;20047;-69
2021/09/12 00:15:32;;;;;;;9.25;5.28;;;;;;;17.03;75.72;99858.03;5046815;28;20028;-70
2021/09/12 00:17:58;;;;;;;7.97;4.63;;;;;;;17.01;75.99;99852.00;5046509;28;20047;-70
2021/09/12 00:20:24;;;;;;;7.28;5.00;;;;;;;16.96;75.51;99844.34;5047344;28;20401;-70
2021/09/12 00:22:49;;;;;;;6.80;5.25;;;;;;;16.95;75.56;99843.47;5048058;28;20033;-70
2021/09/12 00:25:15;;;;;;;6.20;5.40;;;;;;;16.97;75.62;99847.84;5030267;28;20116;-70
2021/09/12 00:27:41;;;;;;;7.75;5.18;;;;;;;16.94;75.88;99846.28;5030054;28;20029;-70
2021/09/12 00:30:07;;;;;;;6.13;4.68;;;;;;;16.94;75.68;99855.09;5047598;28;20033;-70
2021/09/12 00:32:33;;;;;;;9.98;4.47;;;;;;;16.92;75.97;99841.03;5046888;28;20494;-71
2021/09/12 00:34:59;;;;;;;7.00;5.00;;;;;;;16.94;75.67;99844.44;5045716;28;20047;-69
2021/09/12 00:37:24;;;;;;;9.35;4.63;;;;;;;16.92;75.85;99842.88;5046747;28;20116;-71
2021/09/12 00:39:50;;;;;;;6.15;4.45;;;;;;;16.89;75.61;99838.63;5047295;28;20121;-71
2021/09/12 00:42:16;;;;;;;6.50;5.03;;;;;;;16.87;75.60;99839.69;5063800;28;20555;-69
2021/09/12 00:44:42;;;;;;;7.05;5.13;;;;;;;16.83;75.83;99839.06;5068017;28;20060;-71
2021/09/12 00:47:11;;;;;;;8.45;4.60;;;;;;;16.81;75.97;99835.69;5067231;28;20454;-69
2021/09/12 00:49:37;;;;;;;7.47;5.00;;;;;;;16.80;76.27;99841.13;5067861;28;20046;-70
2021/09/12 00:52:06;;;;;;;5.82;5.03;;;;;;;16.77;75.88;99834.19;5066752;28;20033;-70
2021/09/12 00:54:36;;;;;;;6.05;4.47;;;;;;;16.75;75.51;99836.94;5067534;28;20033;-70
2021/09/12 00:57:04;;;;;;;8.23;5.10;;;;;;;16.74;75.46;99845.06;5065964;28;20056;-69
2021/09/12 00:59:31;;;;;;;7.35;4.28;;;;;;;16.70;75.68;99839.09;5067549;28;20048;-69
2021/09/12 01:01:59;;;;;;;6.68;4.65;;;;;;;16.66;75.75;99837.66;5041705;28;20623;-72
2021/09/12 01:04:25;;;;;;;6.50;4.82;;;;;;;16.63;75.60;99837.00;5068865;28;20063;-70
2021/09/12 01:06:50;;;;;;;6.32;5.13;;;;;;;16.60;75.88;99842.56;5051728;28;20060;-70
2021/09/12 01:09:17;;;;;;;8.93;5.63;;;;;;;16.55;75.97;99847.38;5068299;28;20032;-71
2021/09/12 01:11:43;;;;;;;9.52;4.95;;;;;;;16.52;75.89;99841.31;5048056;28;20041;-72
2021/09/12 01:14:09;;;;;;;6.88;5.00;;;;;;;16.48;75.88;99847.81;5031188;28;20064;-70
2021/09/12 01:16:35;;;;;;;7.10;4.78;;;;;;;16.48;76.03;99847.81;5032562;28;20092;-71
2021/09/12 01:19:00;;;;;;;6.22;5.15;;;;;;;16.46;76.07;99831.09;5033074;28;20112;-70
2021/09/12 01:21:26;;;;;;;7.88;4.78;;;;;;;16.45;75.83;99828.56;5031610;28;20168;-71
2021/09/12 01:23:53;;;;;;;8.43;4.10;;;;;;;16.42;76.22;99834.97;5033041;28;20469;-71
2021/09/12 01:26:21;;;;;;;9.48;4.80;;;;;;;16.44;76.14;99830.38;5031687;28;20105;-70
2021/09/12 01:28:46;;;;;;;4.90;4.07;;;;;;;16.50;76.07;99827.25;5031408;28;20033;-68
2021/09/12 01:31:22;;;;;;;4.88;4.25;;;;;;;16.54;75.74;99827.91;5032036;28;20052;-71
2021/09/12 01:33:48;;;;;;;6.60;4.28;;;;;;;16.57;75.91;99826.81;5032929;28;20052;-71
2021/09/12 01:36:15;;;;;;;6.00;4.38;;;;;;;16.60;75.43;99829.25;5032425;28;20034;-71
2021/09/12 01:38:40;;;;;;;5.57;4.43;;;;;;;16.59;75.33;99819.56;5031921;28;20482;-70
2021/09/12 01:41:05;;;;;;;6.90;4.53;;;;;;;16.59;75.31;99819.56;5031460;28;20040;-71
2021/09/12 01:43:31;;;;;;;6.32;4.88;;;;;;;16.59;75.42;99823.09;5031378;28;20495;-70
2021/09/12 01:45:56;;;;;;;5.53;4.53;;;;;;;16.58;75.40;99821.38;5028565;28;20406;-70
2021/09/12 01:48:22;;;;;;;6.75;4.90;;;;;;;16.51;75.71;99826.31;5030039;28;20037;-71
2021/09/12 01:50:47;;;;;;;9.27;6.07;;;;;;;16.48;75.76;99826.50;5031082;28;20041;-68
2021/09/12 01:53:12;;;;;;;8.40;5.03;;;;;;;16.48;75.53;99825.66;5030301;28;20496;-69
2021/09/12 01:55:38;;;;;;;7.53;3.92;;;;;;;16.44;76.17;99826.84;5029583;28;20041;-70
2021/09/12 01:58:03;;;;;;;9.00;4.88;;;;;;;16.43;76.02;99825.16;5029411;28;20109;-70
2021/09/12 02:00:29;;;;;;;7.78;4.78;;;;;;;16.37;75.94;99839.78;5029618;28;20392;-70
2021/09/12 02:02:54;;;;;;;6.13;4.55;;;;;;;16.38;76.33;99832.63;5030226;28;20394;-71
2021/09/12 02:05:19;;;;;;;5.95;4.00;;;;;;;16.36;76.12;99835.38;5031308;28;20030;-70
2021/09/12 02:07:45;;;;;;;9.30;4.45;;;;;;;16.39;76.24;99835.19;5030886;28;20398;-69
2021/09/12 02:10:10;;;;;;;7.28;4.60;;;;;;;16.41;75.95;99841.22;5030503;28;20095;-69
2021/09/12 02:12:35;;;;;;;7.88;5.82;;;;;;;16.41;76.18;99830.59;5029888;28;20041;-69
2021/09/12 02:15:01;;;;;;;8.00;5.15;;;;;;;16.44;75.96;99834.84;5030724;28;20107;-69
2021/09/12 02:17:26;;;;;;;10.32;5.55;;;;;;;16.45;75.84;99840.06;5030868;28;20029;-69
2021/09/12 02:19:51;;;;;;;8.52;5.32;;;;;;;16.44;75.65;99841.03;5030933;28;20136;-71
2021/09/12 02:22:17;;;;;;;6.93;4.80;;;;;;;16.44;75.46;99834.84;5052850;28;20470;-70
2021/09/12 02:24:43;;;;;;;9.05;5.60;;;;;;;16.44;75.83;99830.38;5068583;28;20080;-70
2021/09/12 02:27:09;;;;;;;9.48;5.95;;;;;;;16.47;75.54;99829.31;5070441;28;20064;-69
2021/09/12 02:29:34;;;;;;;10.43;6.22;;;;;;;16.51;75.57;99828.09;5068664;28;20075;-69
2021/09/12 02:31:59;;;;;;;9.50;6.38;;;;;;;16.50;75.80;99819.28;5069472;28;20037;-68
2021/09/12 02:34:25;;;;;;;11.52;5.97;;;;;;;16.52;75.42;99828.00;5068173;28;20037;-70
2021/09/12 02:36:50;;;;;;;11.77;6.50;;;;;;;16.47;75.56;99826.66;5070100;28;20103;-70
2021/09/12 02:39:15;;;;;;;7.85;5.40;;;;;;;16.41;75.96;99822.59;5068704;28;20422;-70
2021/09/12 02:41:41;;;;;;;10.18;6.07;;;;;;;16.38;76.06;99829.97;5051534;28;20040;-70
2021/09/12 02:44:06;;;;;;;9.98;7.15;;;;;;;16.34;75.98;99825.81;5070062;28;20044;-70
2021/09/12 02:46:32;;;;;;;7.88;6.88;;;;;;;16.29;76.67;99828.81;5068388;28;20085;-69
2021/09/12 02:48:57;;;;;;;7.03;6.18;;;;;;;16.22;76.56;99825.78;5069927;28;20159;-71
2021/09/12 02:51:23;;;;;;;15.75;7.38;;;;;;;16.17;76.65;99824.38;5069220;28;20033;-69
2021/09/12 02:53:48;;;;;;;9.60;5.80;;;;;;;16.17;76.76;99837.69;5064605;28;20048;-69
2021/09/12 02:56:14;;;;;;;9.48;6.25;;;;;;;16.13;76.83;99834.41;5069749;28;20059;-69
2021/09/12 02:58:39;;;;;;;8.95;6.60;;;;;;;16.08;76.64;99831.22;5069374;28;20036;-71
2021/09/12 03:01:05;;;;;;;9.23;6.30;;;;;;;16.04;76.56;99840.38;5068969;28;20041;-69
2021/09/12 03:03:30;;;;;;;7.45;6.30;;;;;;;15.98;76.38;99838.16;5069065;28;20039;-70
2021/09/12 03:05:56;;;;;;;8.43;6.50;;;;;;;15.92;77.10;99838.56;5069433;28;20555;-69
2021/09/12 03:08:21;;;;;;;5.95;5.18;;;;;;;15.92;76.57;99843.91;5070696;28;20615;-70
2021/09/12 03:10:47;;;;;;;6.63;5.93;;;;;;;15.91;76.46;99839.53;5069278;28;20436;-71
2021/09/12 03:13:12;;;;;;;8.52;4.63;;;;;;;15.88;76.72;99846.78;5068530;28;20516;-71
2021/09/12 03:15:37;;;;;;;9.38;6.18;;;;;;;15.91;76.39;99840.38;5069211;28;20052;-70
2021/09/12 03:18:03;;;;;;;11.15;5.03;;;;;;;15.91;76.46;99832.41;5067743;28;20401;-70
2021/09/12 03:20:28;;;;;;;7.80;4.90;;;;;;;15.92;76.04;99835.91;5069185;28;20434;-71
2021/09/12 03:22:54;;;;;;;9.20;5.68;;;;;;;15.87;76.21;99830.91;5052756;28;20043;-70
2021/09/12 03:25:19;;;;;;;6.55;5.00;;;;;;;15.84;76.18;99828.47;5083948;28;20033;-70
2021/09/12 03:27:44;;;;;;;7.03;5.53;;;;;;;15.76;76.59;99830.84;5084553;28;20032;-70
2021/09/12 03:30:10;;;;;;;9.55;4.93;;;;;;;15.72;76.19;99824.88;5082360;28;20043;-70
2021/09/12 03:32:36;;;;;;;11.70;5.20;;;;;;;15.70;76.25;99818.81;5080242;28;20033;-71
2021/09/12 03:35:01;;;;;;;9.38;5.28;;;;;;;15.70;76.20;99815.31;5082692;28;20036;-70
2021/09/12 03:37:27;;;;;;;6.32;4.93;;;;;;;15.69;76.06;99819.75;5082040;28;20048;-71
2021/09/12 03:39:53;;;;;;;7.47;4.97;;;;;;;15.66;76.33;99822.63;5083165;28;20090;-72
2021/09/12 03:42:18;;;;;;;6.68;4.80;;;;;;;15.62;76.38;99819.31;5076433;28;20029;-71
2021/09/12 03:44:43;;;;;;;6.03;4.75;;;;;;;15.59;76.13;99832.81;5068002;28;20453;-70
2021/09/12 03:47:09;;;;;;;8.88;5.45;;;;;;;15.56;76.37;99825.06;5069182;28;20116;-71
2021/09/12 03:49:34;;;;;;;10.35;5.18;;;;;;;15.52;76.66;99820.06;5068201;28;20032;-70
2021/09/12 03:51:59;;;;;;;7.63;5.78;;;;;;;15.49;76.55;99821.13;5067845;28;20071;-71
2021/09/12 03:54:25;;;;;;;9.95;5.68;;;;;;;15.47;76.31;99820.38;5068717;28;20182;-71
2021/09/12 03:56:50;;;;;;;7.60;4.90;;;;;;;15.42;76.91;99818.03;5051301;28;20028;-70
2021/09/12 03:59:15;;;;;;;6.93;5.70;;;;;;;15.40;77.08;99822.59;5067095;28;20095;-70
2021/09/12 04:01:41;;;;;;;9.02;5.20;;;;;;;15.34;77.29;99816.88;5067969;28;20036;-70
2021/09/12 04:04:07;;;;;;;6.18;5.18;;;;;;;15.31;77.26;99825.03;5069164;28;20036;-71
2021/09/12 04:06:32;;;;;;;7.30;4.88;;;;;;;15.30;77.31;99826.00;5069141;28;20036;-71
2021/09/12 04:08:58;;;;;;;6.30;5.35;;;;;;;15.23;77.34;99821.13;5068781;28;20048;-71
2021/09/12 04:11:23;;;;;;;9.30;6.35;;;;;;;15.22;77.67;99819.41;5068530;28;20047;-70
2021/09/12 04:13:49;;;;;;;7.88;5.68;;;;;;;15.17;77.93;99813.56;5068712;28;20440;-71
2021/09/12 04:16:15;;;;;;;6.25;5.47;;;;;;;15.11;77.98;99814.00;5068199;28;20055;-70
2021/09/12 04:18:40;;;;;;;17.00;6.55;;;;;;;15.05;77.91;99814.38;5068402;28;20114;-70
2021/09/12 04:21:06;;;;;;;8.35;5.80;;;;;;;15.01;78.15;99818.19;5067557;28;20075;-72
2021/09/12 04:23:31;;;;;;;10.82;6.20;;;;;;;14.97;78.42;99822.88;5066946;28;20035;-70
2021/09/12 04:25:57;;;;;;;11.65;6.88;;;;;;;14.93;78.28;99816.06;5068515;28;20541;-70
2021/09/12 04:28:22;;;;;;;10.48;5.93;;;;;;;14.89;78.81;99816.38;5069137;28;20509;-70
2021/09/12 04:30:47;;;;;;;13.40;7.38;;;;;;;14.88;78.70;99819.97;5068215;28;20041;-71
2021/09/12 04:33:13;;;;;;;9.07;8.00;;;;;;;14.86;78.68;99819.22;5067729;28;20059;-70
2021/09/12 04:35:38;;;;;;;9.00;5.82;;;;;;;14.85;79.02;99822.84;5067829;28;20543;-71
2021/09/12 04:38:04;;;;;;;7.32;5.25;;;;;;;14.92;78.70;99818.84;5066771;28;20510;-71
2021/09/12 04:40:30;;;;;;;11.60;6.70;;;;;;;14.99;78.29;99817.47;5067858;28;20033;-70
2021/09/12 04:42:55;;;;;;;9.07;5.75;;;;;;;15.03;78.41;99826.91;5067535;28;20155;-70
2021/09/12 04:45:21;;;;;;;10.70;7.70;;;;;;;15.06;78.11;99821.38;5068315;28;20040;-69
2021/09/12 04:47:46;;;;;;;10.57;6.53;;;;;;;15.05;78.44;99818.84;5068327;28;20135;-69
2021/09/12 04:50:12;;;;;;;10.35;6.40;;;;;;;15.08;77.88;99823.94;5072066;28;20036;-69
2021/09/12 04:52:37;;;;;;;7.32;5.93;;;;;;;15.06;78.10;99824.03;5070019;28;20098;-70
2021/09/12 04:55:02;;;;;;;10.10;4.78;;;;;;;15.11;77.63;99829.94;5071817;28;20401;-68
2021/09/12 04:57:28;;;;;;;6.82;5.38;;;;;;;15.13;77.80;99830.66;5069917;28;20039;-70
2021/09/12 04:59:53;;;;;;;12.90;6.57;;;;;;;15.10;77.49;99830.84;5072616;28;20101;-70
2021/09/12 05:02:18;;;;;;;13.32;6.47;;;;;;;15.11;77.63;99835.25;5070857;28;20394;-70
2021/09/12 05:04:44;;;;;;;10.10;5.97;;;;;;;15.09;77.43;99830.94;5070122;28;20501;-70
2021/09/12 05:07:09;;;;;;;12.63;7.03;;;;;;;15.07;77.25;99832.88;5071617;28;20036;-70
2021/09/12 05:09:34;;;;;;;10.90;6.35;;;;;;;15.05;77.49;99838.28;5071912;28;20394;-69
2021/09/12 05:12:00;;;;;;;13.70;8.05;;;;;;;15.00;77.70;99838.59;5070701;28;20667;-69
2021/09/12 05:14:26;;;;;;;9.80;5.97;;;;;;;14.95;77.95;99837.22;5053189;28;20486;-69
2021/09/12 05:16:52;;;;;;;10.13;5.90;;;;;;;14.94;78.04;99841.66;5072153;28;20036;-70
2021/09/12 05:19:17;;;;;;;9.70;6.07;;;;;;;14.95;78.08;99839.84;5071576;28;20386;-70
2021/09/12 05:21:43;;;;;;;17.20;12.35;;;;;;;14.98;78.08;99839.66;5070974;28;20036;-69
2021/09/12 05:24:08;;;;;;;10.38;6.57;;;;;;;15.02;77.92;99846.47;5071421;28;20040;-70
2021/09/12 05:26:33;;;;;;;7.50;6.65;;;;;;;15.04;77.54;99849.88;5069764;28;20036;-70
2021/09/12 05:28:59;;;;;;;9.52;6.10;;;;;;;15.08;77.57;99851.34;5071682;28;20037;-70
2021/09/12 05:31:25;;;;;;;6.57;5.40;;;;;;;15.13;77.61;99853.69;5070085;28;20166;-71
2021/09/12 05:33:50;;;;;;;6.55;4.45;;;;;;;15.19;77.42;99848.84;5054138;28;20037;-70
2021/09/12 05:36:16;;;;;;;7.05;5.10;;;;;;;15.24;76.99;99849.38;5032898;28;20555;-71
2021/09/12 05:38:41;;;;;;;8.13;5.38;;;;;;;15.28;76.87;99854.47;5050789;28;20033;-69
2021/09/12 05:41:06;;;;;;;9.05;6.13;;;;;;;15.32;76.74;99853.31;5049393;28;20731;-71
2021/09/12 05:43:32;;;;;;;8.20;5.95;;;;;;;15.38;76.12;99863.50;5050687;28;20037;-70
2021/09/12 05:45:57;;;;;;;8.57;5.05;;;;;;;15.43;76.20;99864.06;5049153;28;20056;-70
2021/09/12 05:48:22;;;;;;;8.05;5.53;;;;;;;15.46;75.93;99872.69;5050000;28;20058;-70
2021/09/12 05:50:48;;;;;;;9.18;4.82;;;;;;;15.49;75.84;99863.66;5050975;28;20033;-70
2021/09/12 05:53:14;;;;;;;6.97;5.28;;;;;;;15.53;75.62;99865.16;5050585;28;20037;-69
2021/09/12 05:55:40;;;;;;;10.85;5.85;;;;;;;15.53;75.69;99865.16;5049380;28;20029;-69
2021/09/12 05:58:05;;;;;;;6.78;5.32;;;;;;;15.54;75.71;99864.19;5050849;28;20064;-69
2021/09/12 06:00:31;;;;;;;8.55;5.80;;;;;;;15.53;75.32;99870.47;5050684;28;20052;-71
2021/09/12 06:02:56;;;;;;;9.75;6.53;;;;;;;15.57;75.49;99871.94;5049900;28;20035;-71
2021/09/12 06:05:22;;;;;;;12.13;4.97;;;;;;;15.60;75.51;99869.09;5051115;28;20071;-70
2021/09/12 06:07:47;;;;;;;10.50;5.82;;;;;;;15.65;75.41;99876.72;5050728;28;20398;-71
2021/09/12 06:10:12;;;;;;;9.00;5.30;;;;;;;15.67;75.03;99872.16;5050869;28;20112;-70
2021/09/12 06:12:38;;;;;;;9.90;5.00;;;;;;;15.73;74.89;99871.78;5049557;28;20048;-70
2021/09/12 06:15:04;;;;;;;9.80;5.75;;;;;;;15.76;74.77;99870.72;5050372;28;20079;-70
2021/09/12 06:17:30;;;;;;;8.90;4.93;;;;;;;15.80;74.73;99880.16;5032482;28;20063;-69
2021/09/12 06:19:55;;;;;;;10.15;4.68;;;;;;;15.85;74.56;99880.69;5050934;28;20064;-69
2021/09/12 06:22:20;;;;;;;6.63;4.40;;;;;;;15.90;74.12;99870.59;5049162;28;20044;-69
2021/09/12 06:24:46;;;;;;;14.98;5.82;;;;;;;15.92;73.98;99873.97;5050325;28;20064;-70
2021/09/12 06:27:11;;;;;;;7.07;4.82;;;;;;;15.93;73.99;99881.03;5047323;28;20505;-71
2021/09/12 06:29:37;;;;;;;9.05;4.80;;;;;;;15.92;73.30;99873.97;5050168;28;20033;-72
2021/09/12 06:32:03;;;;;;;9.52;5.45;;;;;;;15.99;73.38;99877.06;5049313;28;20029;-70
2021/09/12 06:34:28;;;;;;;8.05;4.25;;;;;;;16.05;73.02;99880.16;5052014;28;20120;-70
2021/09/12 06:36:56;;;;;;;12.45;5.50;;;;;;;16.08;72.89;99879.09;5051294;28;20037;-70
2021/09/12 06:39:21;;;;;;;9.55;4.78;;;;;;;16.08;72.41;99879.09;5055539;28;20094;-70
2021/09/12 06:41:47;;;;;;;8.30;4.40;;;;;;;16.10;72.23;99878.03;5066029;28;20044;-70
2021/09/12 06:44:12;;;;;;;9.10;4.93;;;;;;;16.16;72.10;99883.88;5056290;28;20061;-70
2021/09/12 06:46:38;;;;;;;9.63;4.40;;;;;;;16.17;71.99;99875.78;5050187;28;20041;-70
2021/09/12 06:49:03;;;;;;;8.85;4.93;;;;;;;16.18;71.58;99877.47;5050559;28;20025;-71
2021/09/12 06:51:29;;;;;;;10.35;5.15;;;;;;;16.18;71.25;99877.47;5049538;28;20043;-71
2021/09/12 06:53:54;;;;;;;15.90;5.90;;;;;;;16.15;71.08;99875.03;5052667;28;20112;-70
2021/09/12 06:56:19;;;;;;;5.88;4.97;;;;;;;16.18;71.26;99880.13;5054199;28;20449;-71
2021/09/12 06:58:45;;;;;;;7.07;4.63;;;;;;;16.27;71.24;99878.66;5057273;28;20060;-70
2021/09/12 07:01:10;;;;;;;8.48;5.63;;;;;;;16.28;70.78;99875.00;5053105;28;20064;-70
2021/09/12 07:03:35;;;;;;;8.10;4.60;;;;;;;16.33;70.61;99877.34;5049906;28;20087;-71
2021/09/12 07:06:01;;;;;;;7.97;5.05;;;;;;;16.34;70.90;99877.22;5049855;28;20406;-70
2021/09/12 07:08:26;;;;;;;12.23;5.93;;;;;;;16.38;70.29;99878.72;5050399;28;20482;-70
2021/09/12 07:10:52;;;;;;;11.60;4.80;;;;;;;16.40;69.83;99878.59;5049590;28;20052;-72
2021/09/12 07:13:17;;;;;;;8.02;4.30;;;;;;;16.43;70.09;99886.38;5048116;28;20025;-71
2021/09/12 07:15:42;;;;;;;7.13;4.20;;;;;;;16.42;69.24;99882.84;5051122;28;20060;-71
2021/09/12 07:18:08;;;;;;;8.50;5.00;;;;;;;16.48;69.62;99887.72;5050889;28;20025;-71
2021/09/12 07:20:33;;;;;;;5.78;3.80;;;;;;;16.58;69.48;99884.41;5049864;28;20033;-71
2021/09/12 07:22:58;;;;;;;8.43;4.47;;;;;;;16.61;68.81;99881.50;5047975;28;20033;-71
2021/09/12 07:25:24;;;;;;;8.57;4.45;;;;;;;16.68;69.05;99885.44;5049743;28;20032;-71
2021/09/12 07:27:50;;;;;;;7.15;4.90;;;;;;;16.75;68.49;99881.34;5031082;28;20116;-69
2021/09/12 07:30:15;;;;;;;7.40;4.28;;;;;;;16.79;67.67;99884.69;5048655;28;20430;-70
2021/09/12 07:32:41;;;;;;;11.25;8.00;;;;;;;16.85;67.08;99890.41;5048393;28;20036;-70
2021/09/12 07:35:07;;;;;;;8.73;4.32;;;;;;;16.85;66.47;99886.88;5048721;28;20032;-70
2021/09/12 07:37:33;;;;;;;7.65;3.95;;;;;;;16.85;66.64;99889.56;5047644;28;20407;-70
2021/09/12 07:39:58;;;;;;;7.40;4.22;;;;;;;16.83;66.74;99886.16;5048730;28;20078;-70
2021/09/12 07:42:24;;;;;;;6.80;3.70;;;;;;;16.92;66.58;99891.66;5046689;28;20123;-70
2021/09/12 07:44:50;;;;;;;9.98;3.38;;;;;;;17.04;66.24;99884.56;5048773;28;20025;-70
2021/09/12 07:47:15;;;;;;;6.43;3.92;;;;;;;17.20;65.64;99888.75;5048850;28;20048;-71
2021/09/12 07:49:41;;;;;;;8.07;4.15;;;;;;;17.31;64.74;99886.97;5047272;28;20028;-71
2021/09/12 07:52:06;;;;;;;8.20;4.18;;;;;;;17.37;64.46;99886.50;5046460;28;20029;-70
2021/09/12 07:54:32;;;;;;;5.80;3.85;;;;;;;17.47;63.70;99888.47;5047308;28;20029;-71
2021/09/12 07:56:57;;;;;;;9.75;5.82;;;;;;;17.65;63.78;99892.41;5048626;28;20391;-71
2021/09/12 07:59:22;;;;;;;5.25;3.35;;;;;;;17.69;62.79;99893.00;5048948;28;20356;-70
2021/09/12 08:01:48;;;;;;;6.63;4.53;;;;;;;17.73;61.60;99892.66;5046488;28;20539;-71
2021/09/12 08:04:13;;;;;;;5.95;3.25;;;;;;;17.75;61.74;99885.38;5056561;28;20085;-70
2021/09/12 08:06:38;;;;;;;4.85;3.25;;;;;;;17.76;61.31;99896.91;5068828;28;20554;-72
2021/09/12 08:09:04;;;;;;;11.27;3.28;;;;;;;17.77;61.25;99899.47;5068523;28;20421;-75
2021/09/12 08:11:29;;;;;;;5.93;3.17;;;;;;;17.81;61.27;99892.09;5068132;28;20063;-74
2021/09/12 08:13:54;;;;;;;5.50;2.95;;;;;;;17.79;60.49;99899.31;5066609;28;20032;-74
2021/09/12 08:16:20;;;;;;;5.22;3.38;;;;;;;17.88;60.26;99895.97;5066880;28;20425;-75
2021/09/12 08:18:45;;;;;;;6.28;3.80;;;;;;;17.96;60.05;99898.03;5068323;28;20040;-75
2021/09/12 08:21:11;;;;;;;4.85;3.10;;;;;;;17.97;59.61;99894.41;5047583;28;20375;-75
2021/09/12 08:23:36;;;;;;;7.00;3.08;;;;;;;17.97;59.29;99900.59;5047450;28;20505;-75
2021/09/12 08:26:02;;;;;;;5.45;3.78;;;;;;;17.92;59.92;99902.78;5048209;28;20033;-74
2021/09/12 08:28:28;;;;;;;6.80;3.08;;;;;;;17.95;59.58;99897.19;5046941;28;20059;-74
2021/09/12 08:30:53;;;;;;;6.22;3.58;;;;;;;18.07;59.66;99899.88;5048418;28;20033;-74
2021/09/12 08:33:19;;;;;;;8.85;3.88;;;;;;;18.11;58.15;99902.16;5046396;28;20036;-75
2021/09/12 08:35:45;;;;;;;6.57;3.15;;;;;;;18.33;58.93;99900.47;5030306;28;20061;-73
2021/09/12 08:38:11;;;;;;;4.53;2.58;;;;;;;18.52;58.31;99898.03;5027977;28;20072;-73
2021/09/12 08:40:37;;;;;;;7.85;2.90;;;;;;;18.55;58.11;99899.59;5024326;28;20055;-73
2021/09/12 08:43:03;;;;;;;8.20;4.15;;;;;;;18.53;57.42;99901.53;5039676;28;20045;-74
2021/09/12 08:45:29;;;;;;;5.30;3.40;;;;;;;18.57;57.38;99897.66;5022822;28;20029;-74
2021/09/12 08:47:55;;;;;;;9.68;3.90;;;;;;;18.72;57.04;99898.25;5022153;28;20030;-73
2021/09/12 08:50:21;;;;;;;6.85;3.65;;;;;;;18.83;56.38;99903.59;5022107;28;20192;-74
2021/09/12 08:52:47;;;;;;;6.25;2.67;;;;;;;18.89;56.29;99908.41;5042380;28;20041;-74
2021/09/12 08:55:13;;;;;;;8.45;3.55;;;;;;;19.15;55.29;99897.38;5041119;28;20044;-73
2021/09/12 08:57:46;;;;;;;5.55;2.65;;;;;;;19.39;53.92;99900.69;5040993;28;20033;-73
2021/09/12 09:00:16;;;;;;;9.05;3.15;;;;;;;19.70;53.60;99898.13;5041274;28;20445;-73
2021/09/12 09:02:41;;;;;;;5.72;2.88;;;;;;;20.15;51.75;99901.31;5041109;28;20780;-75
2021/09/12 09:05:07;;;;;;;4.15;2.53;;;;;;;20.49;50.65;99897.50;5039978;28;20037;-75
2021/09/12 09:07:33;;;;;;;4.22;2.55;;;;;;;20.69;50.62;99903.78;5058977;28;20135;-74
2021/09/12 09:10:00;;;;;;;6.47;2.47;;;;;;;21.03;49.81;99901.59;5061211;28;20800;-76
2021/09/12 09:12:31;;;;;;;8.48;3.40;;;;;;;21.40;48.77;99908.97;5061845;28;20029;-74
2021/09/12 09:15:03;;;;;;;6.60;2.55;;;;;;;21.65;48.14;99905.69;5062451;28;20034;-75
2021/09/12 09:17:28;;;;;;;3.92;2.40;;;;;;;21.60;48.26;99902.59;5062150;28;20044;-74
2021/09/12 09:19:55;;;;;;;6.43;2.88;;;;;;;22.15;46.42;99901.03;5063485;28;20075;-74
2021/09/12 09:22:34;;;;;;;4.10;2.80;;;;;;;22.89;44.65;99900.97;5061303;28;20737;-75
2021/09/12 09:25:06;;;;;;;6.07;3.00;;;;;;;23.66;43.14;99895.94;5062166;28;20033;-76
2021/09/12 09:27:51;;;;;;;6.22;2.92;;;;;;;24.13;41.62;99892.06;5063492;28;20121;-75
2021/09/12 09:30:17;;;;;;;6.75;3.30;;;;;;;24.67;40.23;99889.13;5066589;28;20028;-74
2021/09/12 09:32:42;;;;;;;4.43;2.50;;;;;;;25.24;38.78;99886.53;5081471;28;20111;-74
2021/09/12 09:35:12;;;;;;;7.50;3.22;;;;;;;25.58;37.57;99875.56;5084591;28;20032;-75
2021/09/12 09:37:46;;;;;;;3.95;2.55;;;;;;;25.83;37.49;99879.06;5054379;28;20157;-74
2021/09/12 09:40:12;;;;;;;4.25;2.63;;;;;;;25.46;36.79;99871.53;5034682;28;20133;-75
2021/09/12 09:42:42;;;;;;;4.95;2.60;;;;;;;24.35;38.96;99885.25;5037537;28;20038;-75
2021/09/12 09:45:09;;;;;;;5.72;2.40;;;;;;;23.91;39.63;99871.91;5024774;28;20041;-71
2021/09/12 09:47:35;;;;;;;4.88;2.53;;;;;;;24.63;38.86;99878.63;5041795;28;20965;-71
2021/09/12 09:50:10;;;;;;;6.75;2.72;;;;;;;25.00;38.46;99869.28;5043081;28;20032;-72
2021/09/12 09:52:36;;;;;;;7.15;3.13;;;;;;;25.90;37.03;99865.75;5040872;28;20188;-72
2021/09/12 09:55:04;;;;;;;4.22;2.13;;;;;;;26.66;35.83;99863.44;5041313;28;20474;-72
2021/09/12 09:57:30;;;;;;;12.95;3.22;;;;;;;25.89;36.85;99864.91;5034666;28;20120;-71
2021/09/12 09:59:57;;;;;;;6.82;3.10;;;;;;;25.33;37.89;99863.13;5037024;28;20198;-74
2021/09/12 10:02:22;;;;;;;4.50;2.65;;;;;;;26.13;36.80;99861.28;5038166;28;20140;-74
2021/09/12 10:04:49;;;;;;;4.57;2.55;;;;;;;25.15;38.16;99858.66;5040582;28;20107;-73
2021/09/12 10:07:14;;;;;;;5.45;2.90;;;;;;;24.40;39.57;99864.91;5045120;28;20121;-73
2021/09/12 10:09:40;;;;;;;9.20;3.05;;;;;;;23.50;41.55;99863.53;5047922;28;20136;-73
2021/09/12 10:12:08;;;;;;;4.75;2.65;;;;;;;22.76;43.34;99857.47;5012566;28;20044;-72
2021/09/12 10:14:40;;;;;;;5.40;3.03;;;;;;;22.42;44.46;99858.13;5039832;28;20150;-73
2021/09/12 10:17:11;;;;;;;6.07;2.72;;;;;;;22.25;44.53;99859.75;5037523;28;20075;-73
2021/09/12 10:19:39;;;;;;;8.63;3.15;;;;;;;23.50;42.26;99855.44;5036804;28;20036;-74
2021/09/12 10:22:16;;;;;;;6.38;2.70;;;;;;;24.31;40.42;99855.09;5017256;28;20060;-75
2021/09/12 10:25:00;;;;;;;5.18;3.10;;;;;;;25.09;38.89;99858.50;5053699;28;20575;-73
2021/09/12 10:27:35;;;;;;;7.97;3.10;;;;;;;25.43;38.17;99853.81;5058222;28;20336;-71
2021/09/12 10:30:36;;;;;;;4.57;2.65;;;;;;;25.76;36.87;99848.34;5038540;28;20033;-70
2021/09/12 10:33:04;;;;;;;4.07;2.30;;;;;;;26.12;36.32;99845.25;5037082;28;20028;-71
2021/09/12 10:35:34;;;;;;;3.72;2.33;;;;;;;26.37;36.19;99850.56;5029924;28;20051;-71
2021/09/12 10:38:04;;;;;;;7.57;3.15;;;;;;;26.24;36.41;99854.66;5044028;28;20044;-71
2021/09/12 10:40:48;;;;;;;4.05;2.70;;;;;;;25.43;37.16;99847.59;5047794;28;20033;-71
2021/09/12 10:43:25;;;;;;;6.38;2.72;;;;;;;25.08;38.16;99838.78;5044612;28;20059;-71
2021/09/12 10:46:11;;;;;;;6.05;2.35;;;;;;;25.03;38.80;99846.50;5038551;28;20052;-72
2021/09/12 10:48:51;;;;;;;3.58;2.25;;;;;;;24.43;39.81;99834.06;5036646;28;20095;-72
2021/09/12 10:51:19;;;;;;;7.18;2.42;;;;;;;24.04;40.42;99842.69;5034696;28;20037;-72
2021/09/12 10:56:29;;;;;;;4.67;2.00;;;;;;;23.64;40.88;99841.41;5035474;28;20048;-69
2021/09/12 10:59:00;;;;;;;5.18;2.28;;;;;;;23.63;41.56;99834.34;5037518;28;20271;-71
2021/09/12 11:01:41;;;;;;;5.57;2.90;;;;;;;23.44;41.20;99846.16;5046248;28;20086;-73
2021/09/12 11:04:07;;;;;;;7.25;2.20;;;;;;;23.17;41.65;99846.28;5046984;28;20041;-72
2021/09/12 11:06:38;;;;;;;4.80;3.05;;;;;;;23.14;41.82;99842.06;5042282;28;20069;-72
2021/09/12 11:09:15;;;;;;;5.20;2.53;;;;;;;22.98;41.91;99840.06;5043999;28;20028;-72
2021/09/12 11:11:40;;;;;;;6.82;2.88;;;;;;;23.01;42.03;99830.84;5044053;28;20083;-72
2021/09/12 11:14:08;;;;;;;8.18;2.03;;;;;;;22.56;42.94;99837.09;5025843;28;20124;-71
2021/09/12 11:16:33;;;;;;;8.45;6.88;;;;;;;22.40;43.73;99830.56;5043645;28;20509;-71
2021/09/12 11:19:01;;;;;;;6.38;2.47;;;;;;;22.17;43.82;99829.22;5043663;28;20063;-74
2021/09/12 11:21:31;;;;;;;10.60;7.20;;;;;;;22.39;44.14;99828.00;5046587;28;20056;-71
2021/09/12 11:24:15;;;;;;;5.60;2.35;;;;;;;22.33;44.30;99817.88;5047511;28;20037;-72
2021/09/12 11:26:46;;;;;;;8.52;4.82;;;;;;;22.46;43.68;99823.72;5044980;28;20037;-72
2021/09/12 11:29:18;;;;;;;6.15;2.67;;;;;;;22.53;43.60;99827.50;5041728;28;20144;-71
2021/09/12 11:32:04;;;;;;;5.18;2.88;;;;;;;22.28;43.70;99821.00;5043252;28;20037;-71